createdAt,value
2022-10-23T00:01:44.661Z,14.69
2022-10-23T00:04:20.676Z,14.68
2022-10-23T00:06:48.932Z,14.48
2022-10-23T00:09:19.305Z,14.00
2022-10-23T00:11:47.827Z,14.14
2022-10-23T00:14:16.021Z,14.43
2022-10-23T00:16:42.591Z,14.65
2022-10-23T00:19:09.279Z,13.93
2022-10-23T00:21:36.237Z,14.36
2022-10-23T00:24:03.007Z,13.93
2022-10-23T00:26:29.708Z,13.73
2022-10-23T00:28:56.400Z,14.04
2022-10-23T00:31:26.162Z,14.52
2022-10-23T00:33:53.091Z,14.11
2022-10-23T00:36:21.302Z,14.04
2022-10-23T00:38:48.767Z,14.01
2022-10-23T00:41:22.010Z,14.21
2022-10-23T00:44:01.863Z,14.26
2022-10-23T00:46:28.718Z,13.80
2022-10-23T00:48:56.963Z,13.37
2022-10-23T00:51:27.704Z,13.85
2022-10-23T00:54:12.910Z,13.69
2022-10-23T00:56:46.699Z,13.72
2022-10-23T00:59:14.162Z,14.16
2022-10-23T01:01:41.513Z,13.66
2022-10-23T01:04:09.984Z,13.63
2022-10-23T01:06:52.754Z,14.03
2022-10-23T01:09:37.586Z,14.03
2022-10-23T01:12:23.684Z,13.56
2022-10-23T01:15:01.057Z,13.64
2022-10-23T01:17:42.353Z,13.24
2022-10-23T01:20:35.276Z,13.52
2022-10-23T01:23:12.297Z,14.16
2022-10-23T01:25:57.169Z,14.31
2022-10-23T01:28:39.698Z,14.39
2022-10-23T01:31:16.225Z,14.20
2022-10-23T01:33:48.822Z,13.07
2022-10-23T01:36:20.867Z,13.48
2022-10-23T01:38:58.287Z,13.46
2022-10-23T01:41:24.899Z,13.48
2022-10-23T01:43:51.544Z,13.98
2022-10-23T01:46:18.761Z,13.64
2022-10-23T01:48:55.515Z,13.48
2022-10-23T01:51:27.982Z,13.71
2022-10-23T01:54:01.040Z,13.62
2022-10-23T01:56:35.538Z,13.47
2022-10-23T01:59:08.569Z,13.18
2022-10-23T02:01:41.737Z,13.63
2022-10-23T02:04:13.290Z,14.24
2022-10-23T02:06:39.967Z,14.06
2022-10-23T02:09:07.709Z,13.73
2022-10-23T02:11:48.400Z,13.36
2022-10-23T02:14:35.168Z,13.66
2022-10-23T02:17:40.788Z,13.29
2022-10-23T02:20:10.268Z,13.08
2022-10-23T02:22:44.228Z,13.62
2022-10-23T02:25:19.918Z,13.81
2022-10-23T02:27:56.967Z,13.87
2022-10-23T02:30:24.036Z,14.07
2022-10-23T02:32:54.716Z,14.02
2022-10-23T02:35:24.820Z,14.07
2022-10-23T02:37:56.469Z,13.22
2022-10-23T02:40:31.570Z,13.82
2022-10-23T02:43:20.130Z,14.08
2022-10-23T02:46:25.582Z,13.98
2022-10-23T02:49:15.200Z,13.67
2022-10-23T02:52:00.736Z,13.53
2022-10-23T02:54:47.573Z,12.99
2022-10-23T02:57:35.436Z,12.58
2022-10-23T03:00:01.962Z,12.91
2022-10-23T03:02:50.108Z,13.06
2022-10-23T03:05:22.211Z,13.39
2022-10-23T03:07:49.876Z,13.34
2022-10-23T03:10:16.581Z,13.34
2022-10-23T03:12:44.084Z,12.78
2022-10-23T03:15:11.762Z,12.89
2022-10-23T03:17:38.574Z,12.42
2022-10-23T03:20:06.651Z,13.16
2022-10-23T03:22:33.932Z,13.38
2022-10-23T03:25:00.562Z,13.32
2022-10-23T03:29:58.614Z,12.72
2022-10-23T03:32:25.236Z,12.75
2022-10-23T03:34:51.833Z,12.73
2022-10-23T03:37:21.598Z,13.14
2022-10-23T03:39:48.435Z,13.49
2022-10-23T03:42:15.028Z,12.99
2022-10-23T03:44:41.623Z,12.30
2022-10-23T03:47:08.194Z,12.67
2022-10-23T03:49:34.782Z,13.27
2022-10-23T03:52:01.412Z,12.99
2022-10-23T03:54:28.325Z,12.42
2022-10-23T03:56:57.522Z,12.31
2022-10-23T03:59:24.682Z,12.37
2022-10-23T04:01:52.935Z,11.96
2022-10-23T04:04:19.690Z,12.22
2022-10-23T04:06:46.309Z,12.43
2022-10-23T04:11:44.673Z,12.28
2022-10-23T04:14:31.254Z,12.37
2022-10-23T04:17:05.050Z,12.85
2022-10-23T04:19:31.676Z,12.26
2022-10-23T04:21:58.278Z,12.66
2022-10-23T04:24:25.883Z,12.24
2022-10-23T04:26:52.694Z,12.50
2022-10-23T04:29:19.727Z,12.44
2022-10-23T04:31:46.321Z,12.53
2022-10-23T04:34:12.924Z,12.90
2022-10-23T04:36:39.502Z,12.91
2022-10-23T04:39:06.284Z,12.24
2022-10-23T04:41:32.942Z,12.49
2022-10-23T04:43:59.583Z,12.32
2022-10-23T04:46:26.198Z,12.96
2022-10-23T04:48:52.772Z,12.19
2022-10-23T04:51:19.376Z,12.51
2022-10-23T04:53:45.982Z,12.48
2022-10-23T04:56:15.773Z,11.96
2022-10-23T04:58:42.839Z,11.98
2022-10-23T05:01:10.559Z,12.93
2022-10-23T05:03:38.295Z,13.14
2022-10-23T05:06:06.148Z,13.37
2022-10-23T05:08:33.052Z,12.29
2022-10-23T05:10:59.921Z,11.98
2022-10-23T05:13:26.502Z,11.78
2022-10-23T05:15:53.745Z,12.58
2022-10-23T05:18:29.102Z,12.95
2022-10-23T05:21:02.477Z,12.48
2022-10-23T05:23:33.254Z,12.56
2022-10-23T05:26:00.362Z,12.89
2022-10-23T05:28:27.078Z,13.54
2022-10-23T05:30:53.781Z,13.84
2022-10-23T05:33:20.509Z,13.03
2022-10-23T05:35:47.176Z,13.26
2022-10-23T05:38:15.242Z,13.26
2022-10-23T05:40:41.873Z,13.25
2022-10-23T05:43:08.459Z,12.91
2022-10-23T05:45:35.199Z,12.95
2022-10-23T05:48:11.029Z,12.86
2022-10-23T05:50:48.616Z,12.87
2022-10-23T05:53:15.200Z,12.74
2022-10-23T05:55:44.093Z,12.71
2022-10-23T05:58:10.712Z,12.76
2022-10-23T06:00:37.273Z,12.88
2022-10-23T06:03:03.990Z,12.40
2022-10-23T06:05:30.586Z,12.21
2022-10-23T06:07:58.945Z,12.47
2022-10-23T06:10:26.445Z,12.75
2022-10-23T06:12:53.041Z,12.71
2022-10-23T06:15:19.669Z,12.90
2022-10-23T06:17:46.418Z,13.08
2022-10-23T06:20:13.237Z,12.35
2022-10-23T06:22:40.185Z,12.40
2022-10-23T06:25:07.863Z,12.78
2022-10-23T06:27:34.451Z,11.94
2022-10-23T06:30:01.028Z,11.44
2022-10-23T06:32:32.316Z,11.63
2022-10-23T06:34:58.953Z,11.75
2022-10-23T06:37:25.510Z,11.82
2022-10-23T06:39:52.083Z,12.36
2022-10-23T06:42:18.764Z,12.70
2022-10-23T06:44:45.338Z,12.99
2022-10-23T06:47:12.039Z,12.52
2022-10-23T06:49:38.668Z,12.85
2022-10-23T06:52:05.312Z,13.14
2022-10-23T06:54:33.396Z,12.93
2022-10-23T06:57:00.054Z,13.78
2022-10-23T06:59:26.764Z,14.07
2022-10-23T07:04:20.178Z,13.46
2022-10-23T07:06:46.827Z,13.16
2022-10-23T07:09:15.554Z,14.12
2022-10-23T07:11:42.216Z,14.08
2022-10-23T07:14:08.901Z,14.45
2022-10-23T07:16:35.645Z,14.81
2022-10-23T07:19:02.362Z,15.51
2022-10-23T07:21:32.457Z,15.68
2022-10-23T07:23:59.273Z,15.90
2022-10-23T07:26:25.934Z,16.07
2022-10-23T07:28:53.462Z,16.23
2022-10-23T07:31:23.061Z,16.19
2022-10-23T07:33:53.198Z,16.52
2022-10-23T07:36:19.826Z,16.64
2022-10-23T07:38:46.651Z,16.85
2022-10-23T07:41:13.324Z,17.15
2022-10-23T07:43:39.948Z,17.24
2022-10-23T07:46:06.596Z,17.50
2022-10-23T07:48:33.236Z,17.54
2022-10-23T07:51:02.623Z,17.91
2022-10-23T07:53:29.455Z,18.02
2022-10-23T07:55:58.957Z,18.01
2022-10-23T07:58:27.741Z,18.07
2022-10-23T08:01:00.100Z,18.20
2022-10-23T08:03:28.202Z,18.16
2022-10-23T08:05:55.376Z,18.33
2022-10-23T08:08:23.209Z,18.40
2022-10-23T08:10:51.772Z,18.43
2022-10-23T08:13:18.493Z,18.44
2022-10-23T08:15:45.252Z,18.43
2022-10-23T08:18:12.094Z,18.47
2022-10-23T08:20:41.181Z,18.51
2022-10-23T08:23:08.496Z,18.08
2022-10-23T08:25:35.278Z,18.20
2022-10-23T08:28:04.279Z,18.37
2022-10-23T08:30:33.152Z,18.50
2022-10-23T08:32:59.748Z,18.63
2022-10-23T08:35:26.443Z,18.09
2022-10-23T08:37:53.065Z,18.53
2022-10-23T08:40:24.107Z,18.06
2022-10-23T08:43:01.803Z,17.81
2022-10-23T08:45:56.948Z,18.01
2022-10-23T08:48:37.947Z,17.98
2022-10-23T08:51:46.744Z,18.23
2022-10-23T08:54:22.576Z,18.00
2022-10-23T08:57:04.880Z,17.74
2022-10-23T08:59:43.955Z,17.84
2022-10-23T09:02:19.784Z,18.10
2022-10-23T09:04:48.904Z,18.10
2022-10-23T09:07:46.695Z,18.09
2022-10-23T09:10:23.744Z,18.24
2022-10-23T09:12:50.461Z,18.02
2022-10-23T09:15:42.573Z,17.85
2022-10-23T09:18:15.721Z,17.48
2022-10-23T09:20:45.480Z,17.80
2022-10-23T09:23:22.722Z,17.74
2022-10-23T09:25:51.762Z,17.84
2022-10-23T09:28:21.236Z,18.14
2022-10-23T09:30:49.023Z,18.38
2022-10-23T09:33:27.463Z,18.05
2022-10-23T09:36:06.408Z,18.19
2022-10-23T09:38:36.783Z,18.17
2022-10-23T09:41:25.807Z,17.78
2022-10-23T09:44:02.464Z,18.02
2022-10-23T09:46:43.099Z,18.29
2022-10-23T09:49:26.438Z,18.46
2022-10-23T09:52:08.162Z,18.68
2022-10-23T09:54:49.864Z,17.55
2022-10-23T09:57:22.617Z,17.06
2022-10-23T09:59:55.205Z,17.74
2022-10-23T10:02:30.732Z,17.88
2022-10-23T10:04:57.687Z,17.71
2022-10-23T10:07:30.193Z,18.06
2022-10-23T10:09:58.921Z,18.38
2022-10-23T10:12:43.904Z,18.08
2022-10-23T10:15:22.676Z,18.22
2022-10-23T10:18:13.491Z,18.27
2022-10-23T10:21:17.511Z,18.22
2022-10-23T10:24:30.365Z,18.34
2022-10-23T10:27:27.037Z,18.57
2022-10-23T10:30:21.801Z,18.29
2022-10-23T10:33:14.105Z,18.04
2022-10-23T10:36:18.974Z,18.47
2022-10-23T10:38:52.802Z,17.91
2022-10-23T10:41:22.406Z,17.92
2022-10-23T10:43:55.088Z,18.05
2022-10-23T10:46:39.810Z,18.08
2022-10-23T10:49:24.442Z,18.90
2022-10-23T10:52:11.819Z,18.69
2022-10-23T10:55:13.806Z,18.17
2022-10-23T10:57:47.218Z,18.35
2022-10-23T11:00:21.114Z,19.04
2022-10-23T11:03:01.512Z,19.38
2022-10-23T11:05:34.861Z,19.67
2022-10-23T11:08:09.650Z,19.25
2022-10-23T11:10:45.841Z,19.36
2022-10-23T11:13:35.368Z,19.75
2022-10-23T11:16:11.325Z,18.81
2022-10-23T11:18:43.064Z,18.89
2022-10-23T11:21:52.831Z,18.29
2022-10-23T11:24:34.588Z,17.95
2022-10-23T11:27:07.199Z,18.24
2022-10-23T11:30:01.867Z,18.37
2022-10-23T11:32:31.559Z,18.75
2022-10-23T11:35:16.645Z,19.06
2022-10-23T11:37:43.760Z,19.12
2022-10-23T11:40:10.585Z,19.10
2022-10-23T11:42:40.151Z,19.41
2022-10-23T11:45:36.721Z,19.49
2022-10-23T11:48:13.589Z,18.98
2022-10-23T11:50:46.115Z,19.02
2022-10-23T11:53:24.901Z,19.36
2022-10-23T11:56:05.183Z,19.28
2022-10-23T11:58:50.498Z,18.70
2022-10-23T12:01:26.084Z,18.57
2022-10-23T12:04:16.344Z,18.87
2022-10-23T12:06:49.312Z,18.94
2022-10-23T12:09:43.751Z,19.16
2022-10-23T12:12:10.339Z,19.58
2022-10-23T12:14:48.855Z,19.28
2022-10-23T12:17:24.725Z,19.05
2022-10-23T12:20:01.656Z,19.41
2022-10-23T12:22:51.442Z,19.61
2022-10-23T12:25:25.097Z,20.06
2022-10-23T12:28:32.133Z,19.75
2022-10-23T12:31:21.437Z,19.40
2022-10-23T12:33:50.927Z,18.88
2022-10-23T12:36:20.357Z,18.53
2022-10-23T12:38:48.919Z,17.54
2022-10-23T12:41:26.697Z,17.80
2022-10-23T12:43:58.187Z,18.30
2022-10-23T12:46:42.001Z,17.64
2022-10-23T12:49:21.376Z,18.06
2022-10-23T12:51:59.844Z,17.98
2022-10-23T12:54:27.252Z,17.99
2022-10-23T12:56:55.346Z,17.57
2022-10-23T12:59:32.170Z,17.55
2022-10-23T13:01:58.890Z,17.07
2022-10-23T13:04:30.387Z,17.24
2022-10-23T13:07:00.769Z,17.61
2022-10-23T13:09:36.362Z,17.99
2022-10-23T13:12:06.444Z,17.54
2022-10-23T13:14:39.311Z,17.39
2022-10-23T13:17:11.664Z,18.21
2022-10-23T13:19:41.523Z,18.36
2022-10-23T13:22:20.371Z,18.48
2022-10-23T13:24:47.872Z,19.02
2022-10-23T13:27:35.023Z,18.54
2022-10-23T13:30:03.198Z,18.73
2022-10-23T13:32:31.670Z,19.02
2022-10-23T13:35:10.053Z,18.03
2022-10-23T13:37:37.136Z,17.78
2022-10-23T13:40:06.988Z,18.77
2022-10-23T13:42:33.755Z,18.15
2022-10-23T13:45:00.385Z,18.52
2022-10-23T13:47:27.010Z,18.12
2022-10-23T13:49:53.644Z,17.67
2022-10-23T13:52:22.454Z,17.64
2022-10-23T13:54:49.493Z,18.16
2022-10-23T13:57:16.568Z,18.29
2022-10-23T13:59:45.901Z,18.80
2022-10-23T14:02:21.942Z,18.17
2022-10-23T14:04:52.104Z,18.74
2022-10-23T14:07:19.227Z,18.39
2022-10-23T14:09:45.832Z,18.82
2022-10-23T14:12:12.437Z,18.88
2022-10-23T14:14:39.247Z,19.34
2022-10-23T14:17:05.892Z,18.92
2022-10-23T14:22:02.011Z,19.05
2022-10-23T14:24:28.724Z,19.20
2022-10-23T14:26:55.370Z,19.61
2022-10-23T14:29:24.673Z,19.97
2022-10-23T14:31:51.708Z,19.36
2022-10-23T14:34:18.815Z,19.66
2022-10-23T14:36:50.233Z,19.48
2022-10-23T14:39:17.968Z,18.44
2022-10-23T14:41:44.615Z,18.18
2022-10-23T14:44:11.262Z,17.63
2022-10-23T14:46:37.906Z,17.49
2022-10-23T14:49:04.592Z,17.77
2022-10-23T14:51:31.362Z,18.20
2022-10-23T14:54:04.335Z,18.43
2022-10-23T14:56:33.745Z,18.63
2022-10-23T14:59:00.978Z,17.95
2022-10-23T15:01:27.781Z,18.71
2022-10-23T15:03:54.590Z,19.16
2022-10-23T15:06:21.611Z,19.33
2022-10-23T15:08:52.726Z,18.32
2022-10-23T15:11:19.366Z,17.99
2022-10-23T15:13:46.011Z,18.64
2022-10-23T15:16:13.116Z,18.05
2022-10-23T15:18:39.808Z,17.94
2022-10-23T15:21:08.035Z,18.02
2022-10-23T15:23:39.777Z,18.24
2022-10-23T15:26:14.065Z,18.92
2022-10-23T15:28:40.724Z,18.59
2022-10-23T15:31:39.326Z,18.63
2022-10-23T15:34:07.393Z,18.21
2022-10-23T15:36:34.359Z,18.61
2022-10-23T15:39:02.080Z,19.05
2022-10-23T15:41:31.602Z,19.08
2022-10-23T15:43:59.993Z,18.04
2022-10-23T15:46:26.730Z,18.27
2022-10-23T15:48:53.983Z,18.63
2022-10-23T15:51:21.208Z,18.70
2022-10-23T15:53:48.148Z,18.37
2022-10-23T15:56:14.792Z,18.02
2022-10-23T15:58:41.699Z,18.09
2022-10-23T16:01:11.383Z,17.89
2022-10-23T16:03:39.110Z,18.37
2022-10-23T16:06:15.171Z,17.93
2022-10-23T16:08:42.337Z,18.20
2022-10-23T16:11:21.767Z,18.48
2022-10-23T16:13:48.394Z,18.18
2022-10-23T16:16:16.408Z,18.12
2022-10-23T16:18:43.869Z,18.93
2022-10-23T16:21:23.069Z,18.52
2022-10-23T16:23:50.948Z,18.73
2022-10-23T16:26:19.075Z,19.12
2022-10-23T16:28:47.288Z,18.77
2022-10-23T16:31:20.053Z,18.91
2022-10-23T16:33:48.987Z,18.87
2022-10-23T16:36:17.333Z,18.67
2022-10-23T16:38:44.083Z,18.40
2022-10-23T16:41:10.735Z,18.70
2022-10-23T16:43:37.387Z,17.97
2022-10-23T16:46:08.118Z,18.51
2022-10-23T16:48:35.567Z,18.51
2022-10-23T16:51:14.353Z,18.69
2022-10-23T16:53:42.567Z,18.19
2022-10-23T16:56:11.728Z,18.27
2022-10-23T16:58:38.778Z,18.52
2022-10-23T17:01:09.411Z,17.84
2022-10-23T17:03:46.109Z,17.98
2022-10-23T17:06:15.280Z,18.21
2022-10-23T17:08:42.518Z,18.39
2022-10-23T17:11:16.543Z,18.63
2022-10-23T17:13:55.250Z,18.56
2022-10-23T17:16:26.709Z,18.89
2022-10-23T17:18:54.140Z,18.10
2022-10-23T17:21:22.045Z,18.32
2022-10-23T17:23:50.290Z,17.91
2022-10-23T17:26:20.470Z,17.80
2022-10-23T17:28:50.002Z,17.63
2022-10-23T17:31:16.682Z,17.60
2022-10-23T17:33:44.808Z,17.56
2022-10-23T17:36:15.559Z,17.73
2022-10-23T17:38:43.298Z,17.68
2022-10-23T17:41:12.477Z,17.58
2022-10-23T17:43:39.856Z,17.52
2022-10-23T17:46:08.956Z,17.36
2022-10-23T17:48:36.422Z,17.43
2022-10-23T17:51:06.506Z,17.11
2022-10-23T17:53:35.063Z,17.35
2022-10-23T17:56:03.476Z,17.38
2022-10-23T17:58:30.886Z,17.42
2022-10-23T18:00:57.779Z,17.31
2022-10-23T18:03:24.797Z,17.24
2022-10-23T18:05:51.465Z,17.41
2022-10-23T18:08:18.054Z,17.08
2022-10-23T18:10:44.673Z,16.87
2022-10-23T18:13:11.254Z,17.09
2022-10-23T18:15:37.901Z,16.89
2022-10-23T18:18:04.471Z,17.01
2022-10-23T18:20:31.058Z,17.54
2022-10-23T18:22:57.636Z,17.24
2022-10-23T18:25:24.213Z,17.87
2022-10-23T18:27:50.830Z,18.29
2022-10-23T18:30:17.489Z,18.13
2022-10-23T18:32:44.225Z,17.97
2022-10-23T18:35:11.096Z,17.92
2022-10-23T18:37:41.295Z,18.27
2022-10-23T18:40:09.407Z,18.35
2022-10-23T18:42:36.237Z,17.84
2022-10-23T18:45:02.873Z,17.66
2022-10-23T18:47:29.461Z,18.39
2022-10-23T18:49:58.837Z,18.33
2022-10-23T18:52:25.557Z,18.25
2022-10-23T18:54:54.430Z,17.85
2022-10-23T18:57:23.385Z,18.23
2022-10-23T18:59:49.999Z,18.26
2022-10-23T19:02:16.857Z,17.53
2022-10-23T19:04:43.713Z,17.41
2022-10-23T19:07:10.339Z,17.55
2022-10-23T19:09:37.069Z,17.39
2022-10-23T19:12:03.981Z,17.05
2022-10-23T19:14:30.610Z,16.50
2022-10-23T19:16:59.980Z,16.22
2022-10-23T19:19:39.455Z,16.33
2022-10-23T19:22:09.808Z,16.74
2022-10-23T19:24:53.683Z,16.41
2022-10-23T19:27:20.671Z,16.38
2022-10-23T19:29:51.665Z,16.45
2022-10-23T19:32:18.401Z,16.62
2022-10-23T19:34:44.984Z,16.73
2022-10-23T19:37:11.633Z,17.18
2022-10-23T19:39:38.512Z,17.15
2022-10-23T19:42:05.641Z,16.81
2022-10-23T19:44:32.286Z,16.61
2022-10-23T19:46:58.938Z,16.81
2022-10-23T19:49:25.533Z,16.59
2022-10-23T19:51:52.203Z,16.54
2022-10-23T19:54:20.970Z,16.72
2022-10-23T19:56:48.422Z,16.86
2022-10-23T19:59:15.142Z,16.75
2022-10-23T20:01:45.071Z,17.00
2022-10-23T20:04:15.852Z,17.23
2022-10-23T20:06:42.480Z,17.01
2022-10-23T20:09:09.190Z,16.93
2022-10-23T20:11:40.600Z,17.03
2022-10-23T20:14:07.892Z,16.86
2022-10-23T20:16:38.783Z,16.54
2022-10-23T20:19:09.363Z,16.80
2022-10-23T20:21:37.875Z,17.05
2022-10-23T20:24:07.841Z,16.78
2022-10-23T20:26:34.930Z,16.66
2022-10-23T20:29:01.538Z,16.44
2022-10-23T20:31:28.158Z,16.61
2022-10-23T20:33:55.931Z,17.08
2022-10-23T20:36:35.360Z,16.43
2022-10-23T20:39:06.292Z,16.58
2022-10-23T20:41:33.414Z,16.62
2022-10-23T20:44:00.657Z,16.57
2022-10-23T20:46:27.403Z,16.72
2022-10-23T20:48:54.132Z,17.28
2022-10-23T20:51:23.498Z,17.08
2022-10-23T20:53:51.372Z,16.96
2022-10-23T20:56:30.538Z,17.09
2022-10-23T20:59:05.324Z,16.88
2022-10-23T21:01:35.895Z,16.40
2022-10-23T21:04:03.303Z,16.13
2022-10-23T21:06:45.741Z,16.24
2022-10-23T21:09:18.812Z,15.79
2022-10-23T21:11:45.562Z,15.79
2022-10-23T21:14:12.544Z,15.84
2022-10-23T21:16:41.141Z,16.41
2022-10-23T21:19:10.460Z,16.48
2022-10-23T21:21:37.112Z,16.16
2022-10-23T21:24:10.714Z,16.17
2022-10-23T21:26:37.408Z,17.09
2022-10-23T21:29:18.007Z,17.08
2022-10-23T21:31:45.481Z,16.06
2022-10-23T21:34:12.220Z,16.08
2022-10-23T21:36:48.606Z,15.76
2022-10-23T21:39:20.703Z,15.73
2022-10-23T21:41:47.340Z,15.55
2022-10-23T21:44:13.985Z,16.05
2022-10-23T21:46:40.595Z,16.42
2022-10-23T21:49:07.334Z,16.88
2022-10-23T21:51:36.501Z,17.54
2022-10-23T21:54:10.564Z,17.17
2022-10-23T21:56:42.752Z,16.85
2022-10-23T21:59:12.780Z,17.40
2022-10-23T22:01:41.905Z,17.68
2022-10-23T22:04:09.130Z,17.29
2022-10-23T22:06:37.006Z,17.59
2022-10-23T22:09:05.701Z,17.94
2022-10-23T22:11:32.713Z,17.75
2022-10-23T22:14:01.522Z,17.34
2022-10-23T22:16:28.141Z,16.75
2022-10-23T22:18:54.886Z,16.95
2022-10-23T22:21:24.983Z,17.57
2022-10-23T22:23:54.780Z,16.80
2022-10-23T22:26:24.039Z,16.88
2022-10-23T22:28:53.962Z,16.75
2022-10-23T22:31:24.474Z,16.55
2022-10-23T22:33:52.250Z,16.48
2022-10-23T22:36:20.048Z,16.47
2022-10-23T22:38:47.105Z,16.63
2022-10-23T22:41:15.376Z,16.48
2022-10-23T22:43:42.025Z,16.54
2022-10-23T22:46:15.830Z,16.54
2022-10-23T22:48:44.033Z,16.22
2022-10-23T22:51:13.433Z,15.79
2022-10-23T22:53:40.274Z,15.50
2022-10-23T22:56:15.358Z,15.82
2022-10-23T22:58:42.214Z,16.19
2022-10-23T23:01:14.098Z,16.31
2022-10-23T23:03:41.080Z,15.62
2022-10-23T23:06:09.242Z,15.97
2022-10-23T23:08:37.616Z,15.72
2022-10-23T23:11:05.898Z,16.15
2022-10-23T23:13:32.780Z,16.22
2022-10-23T23:16:02.886Z,16.27
2022-10-23T23:18:29.798Z,16.08
2022-10-23T23:21:05.662Z,15.95
2022-10-23T23:23:32.408Z,15.80
2022-10-23T23:25:59.129Z,16.07
2022-10-23T23:28:25.741Z,15.59
2022-10-23T23:31:06.129Z,15.81
2022-10-23T23:33:32.865Z,15.97
2022-10-23T23:35:59.786Z,15.56
2022-10-23T23:38:26.775Z,16.27
2022-10-23T23:40:53.983Z,15.62
2022-10-23T23:43:20.699Z,15.68
2022-10-23T23:45:47.282Z,15.46
2022-10-23T23:48:13.952Z,15.40
2022-10-23T23:50:41.454Z,15.86
2022-10-23T23:53:08.098Z,15.90
2022-10-23T23:55:34.999Z,15.65
2022-10-23T23:58:01.977Z,15.55
